<?xml version="1.0" encoding="UTF-8" ?>
<gpx version="1.1" xmlns:xsi="http://www.w3.org/2001/XMLSchema-instance"
    xmlns="http://www.topografix.com/GPX/1/1"
    xsi:schemaLocation="http://www.topografix.com/GPX/1/1 http://www.topografix.com/GPX/1/1/gpx.xsd"
    creator="Openrunner - https://www.openrunner.com" >
                <wpt lat="48.601025" lon="-0.423878">
                        <ele>0</ele>
                        <name><![CDATA[Ravitaillement]]></name>
                        <desc><![CDATA[]]></desc>
                    <sym>3</sym>
                </wpt>
            
                <wpt lat="48.571163" lon="-0.427842">
                        <ele>0</ele>
                        <name><![CDATA[Ravitaillement]]></name>
                        <desc><![CDATA[]]></desc>
                    <sym>3</sym>
                </wpt>
            
                <wpt lat="48.566071" lon="-0.436724">
                        <ele>0</ele>
                        <name><![CDATA[Bouteille d'eau]]></name>
                        <desc><![CDATA[]]></desc>
                    <sym>104</sym>
                </wpt>
            	<trk>
	                   <name>BNT21.2026-20381940</name>
						<trkseg>
					<trkpt lat="48.552870" lon="-0.421450">
						<ele>210</ele>
						<time>2026-08-24T08:12:51Z</time>
					</trkpt>
					<trkpt lat="48.553110" lon="-0.421500">
						<ele>213</ele>
						<time>2026-08-24T08:13:03Z</time>
					</trkpt>
					<trkpt lat="48.553270" lon="-0.421650">
						<ele>214</ele>
						<time>2026-08-24T08:13:13Z</time>
					</trkpt>
					<trkpt lat="48.553320" lon="-0.421840">
						<ele>214</ele>
						<time>2026-08-24T08:13:19Z</time>
					</trkpt>
					<trkpt lat="48.553280" lon="-0.422060">
						<ele>213</ele>
						<time>2026-08-24T08:13:27Z</time>
					</trkpt>
					<trkpt lat="48.552960" lon="-0.422310">
						<ele>210</ele>
						<time>2026-08-24T08:13:45Z</time>
					</trkpt>
					<trkpt lat="48.552890" lon="-0.422490">
						<ele>209</ele>
						<time>2026-08-24T08:13:52Z</time>
					</trkpt>
					<trkpt lat="48.552840" lon="-0.422570">
						<ele>209</ele>
						<time>2026-08-24T08:13:55Z</time>
					</trkpt>
					<trkpt lat="48.552750" lon="-0.422680">
						<ele>208</ele>
						<time>2026-08-24T08:14:01Z</time>
					</trkpt>
					<trkpt lat="48.552900" lon="-0.423330">
						<ele>208</ele>
						<time>2026-08-24T08:14:24Z</time>
					</trkpt>
					<trkpt lat="48.552790" lon="-0.423480">
						<ele>207</ele>
						<time>2026-08-24T08:14:31Z</time>
					</trkpt>
					<trkpt lat="48.552590" lon="-0.423480">
						<ele>206</ele>
						<time>2026-08-24T08:14:41Z</time>
					</trkpt>
					<trkpt lat="48.552330" lon="-0.423540">
						<ele>203</ele>
						<time>2026-08-24T08:14:55Z</time>
					</trkpt>
					<trkpt lat="48.552190" lon="-0.423410">
						<ele>202</ele>
						<time>2026-08-24T08:15:03Z</time>
					</trkpt>
					<trkpt lat="48.552020" lon="-0.423320">
						<ele>200</ele>
						<time>2026-08-24T08:15:12Z</time>
					</trkpt>
					<trkpt lat="48.551970" lon="-0.422710">
						<ele>198</ele>
						<time>2026-08-24T08:15:32Z</time>
					</trkpt>
					<trkpt lat="48.551870" lon="-0.421790">
						<ele>197</ele>
						<time>2026-08-24T08:16:03Z</time>
					</trkpt>
					<trkpt lat="48.551760" lon="-0.421410">
						<ele>194</ele>
						<time>2026-08-24T08:16:17Z</time>
					</trkpt>
					<trkpt lat="48.551830" lon="-0.421270">
						<ele>194</ele>
						<time>2026-08-24T08:16:23Z</time>
					</trkpt>
					<trkpt lat="48.551980" lon="-0.421290">
						<ele>197</ele>
						<time>2026-08-24T08:16:30Z</time>
					</trkpt>
					<trkpt lat="48.552090" lon="-0.420870">
						<ele>197</ele>
						<time>2026-08-24T08:16:45Z</time>
					</trkpt>
					<trkpt lat="48.552460" lon="-0.420520">
						<ele>204</ele>
						<time>2026-08-24T08:17:07Z</time>
					</trkpt>
					<trkpt lat="48.552740" lon="-0.420390">
						<ele>209</ele>
						<time>2026-08-24T08:17:22Z</time>
					</trkpt>
					<trkpt lat="48.552850" lon="-0.420350">
						<ele>211</ele>
						<time>2026-08-24T08:17:27Z</time>
					</trkpt>
					<trkpt lat="48.552900" lon="-0.420030">
						<ele>212</ele>
						<time>2026-08-24T08:17:38Z</time>
					</trkpt>
					<trkpt lat="48.553030" lon="-0.419740">
						<ele>214</ele>
						<time>2026-08-24T08:17:50Z</time>
					</trkpt>
					<trkpt lat="48.553180" lon="-0.419530">
						<ele>216</ele>
						<time>2026-08-24T08:18:00Z</time>
					</trkpt>
					<trkpt lat="48.553350" lon="-0.419780">
						<ele>220</ele>
						<time>2026-08-24T08:18:12Z</time>
					</trkpt>
					<trkpt lat="48.553520" lon="-0.420020">
						<ele>222</ele>
						<time>2026-08-24T08:18:24Z</time>
					</trkpt>
					<trkpt lat="48.553650" lon="-0.420170">
						<ele>222</ele>
						<time>2026-08-24T08:18:32Z</time>
					</trkpt>
					<trkpt lat="48.553820" lon="-0.420540">
						<ele>223</ele>
						<time>2026-08-24T08:18:47Z</time>
					</trkpt>
					<trkpt lat="48.554180" lon="-0.420310">
						<ele>226</ele>
						<time>2026-08-24T08:19:06Z</time>
					</trkpt>
					<trkpt lat="48.554420" lon="-0.420230">
						<ele>226</ele>
						<time>2026-08-24T08:19:19Z</time>
					</trkpt>
					<trkpt lat="48.554490" lon="-0.420360">
						<ele>226</ele>
						<time>2026-08-24T08:19:24Z</time>
					</trkpt>
					<trkpt lat="48.554560" lon="-0.420510">
						<ele>226</ele>
						<time>2026-08-24T08:19:30Z</time>
					</trkpt>
					<trkpt lat="48.554530" lon="-0.420730">
						<ele>226</ele>
						<time>2026-08-24T08:19:38Z</time>
					</trkpt>
					<trkpt lat="48.554400" lon="-0.420940">
						<ele>225</ele>
						<time>2026-08-24T08:19:47Z</time>
					</trkpt>
					<trkpt lat="48.554380" lon="-0.421060">
						<ele>224</ele>
						<time>2026-08-24T08:19:51Z</time>
					</trkpt>
					<trkpt lat="48.554460" lon="-0.421130">
						<ele>224</ele>
						<time>2026-08-24T08:19:56Z</time>
					</trkpt>
					<trkpt lat="48.554450" lon="-0.421270">
						<ele>223</ele>
						<time>2026-08-24T08:20:01Z</time>
					</trkpt>
					<trkpt lat="48.554490" lon="-0.421440">
						<ele>223</ele>
						<time>2026-08-24T08:20:07Z</time>
					</trkpt>
					<trkpt lat="48.554610" lon="-0.421490">
						<ele>224</ele>
						<time>2026-08-24T08:20:13Z</time>
					</trkpt>
					<trkpt lat="48.554700" lon="-0.421670">
						<ele>224</ele>
						<time>2026-08-24T08:20:20Z</time>
					</trkpt>
					<trkpt lat="48.554820" lon="-0.421840">
						<ele>226</ele>
						<time>2026-08-24T08:20:28Z</time>
					</trkpt>
					<trkpt lat="48.554890" lon="-0.422230">
						<ele>226</ele>
						<time>2026-08-24T08:20:42Z</time>
					</trkpt>
					<trkpt lat="48.555050" lon="-0.422310">
						<ele>227</ele>
						<time>2026-08-24T08:20:50Z</time>
					</trkpt>
					<trkpt lat="48.555120" lon="-0.422270">
						<ele>227</ele>
						<time>2026-08-24T08:20:54Z</time>
					</trkpt>
					<trkpt lat="48.555370" lon="-0.422040">
						<ele>228</ele>
						<time>2026-08-24T08:21:09Z</time>
					</trkpt>
					<trkpt lat="48.555640" lon="-0.421640">
						<ele>228</ele>
						<time>2026-08-24T08:21:28Z</time>
					</trkpt>
					<trkpt lat="48.555720" lon="-0.421950">
						<ele>228</ele>
						<time>2026-08-24T08:21:39Z</time>
					</trkpt>
					<trkpt lat="48.555770" lon="-0.422450">
						<ele>229</ele>
						<time>2026-08-24T08:21:55Z</time>
					</trkpt>
					<trkpt lat="48.555810" lon="-0.423490">
						<ele>228</ele>
						<time>2026-08-24T08:22:30Z</time>
					</trkpt>
					<trkpt lat="48.555820" lon="-0.423510">
						<ele>228</ele>
						<time>2026-08-24T08:22:31Z</time>
					</trkpt>
					<trkpt lat="48.555910" lon="-0.424400">
						<ele>228</ele>
						<time>2026-08-24T08:23:01Z</time>
					</trkpt>
					<trkpt lat="48.555990" lon="-0.424780">
						<ele>228</ele>
						<time>2026-08-24T08:23:14Z</time>
					</trkpt>
					<trkpt lat="48.556050" lon="-0.425020">
						<ele>229</ele>
						<time>2026-08-24T08:23:22Z</time>
					</trkpt>
					<trkpt lat="48.556200" lon="-0.425730">
						<ele>229</ele>
						<time>2026-08-24T08:23:47Z</time>
					</trkpt>
					<trkpt lat="48.556450" lon="-0.426900">
						<ele>231</ele>
						<time>2026-08-24T08:24:28Z</time>
					</trkpt>
					<trkpt lat="48.556790" lon="-0.428570">
						<ele>235</ele>
						<time>2026-08-24T08:25:25Z</time>
					</trkpt>
					<trkpt lat="48.556900" lon="-0.429170">
						<ele>235</ele>
						<time>2026-08-24T08:25:46Z</time>
					</trkpt>
					<trkpt lat="48.556920" lon="-0.429290">
						<ele>235</ele>
						<time>2026-08-24T08:25:50Z</time>
					</trkpt>
					<trkpt lat="48.556970" lon="-0.429720">
						<ele>236</ele>
						<time>2026-08-24T08:26:05Z</time>
					</trkpt>
					<trkpt lat="48.557500" lon="-0.432820">
						<ele>236</ele>
						<time>2026-08-24T08:27:51Z</time>
					</trkpt>
					<trkpt lat="48.557420" lon="-0.433910">
						<ele>237</ele>
						<time>2026-08-24T08:28:27Z</time>
					</trkpt>
					<trkpt lat="48.557370" lon="-0.434250">
						<ele>237</ele>
						<time>2026-08-24T08:28:39Z</time>
					</trkpt>
					<trkpt lat="48.557230" lon="-0.435060">
						<ele>237</ele>
						<time>2026-08-24T08:29:06Z</time>
					</trkpt>
					<trkpt lat="48.557150" lon="-0.435510">
						<ele>235</ele>
						<time>2026-08-24T08:29:22Z</time>
					</trkpt>
					<trkpt lat="48.557050" lon="-0.436180">
						<ele>234</ele>
						<time>2026-08-24T08:29:44Z</time>
					</trkpt>
					<trkpt lat="48.557070" lon="-0.436290">
						<ele>234</ele>
						<time>2026-08-24T08:29:48Z</time>
					</trkpt>
					<trkpt lat="48.557200" lon="-0.436870">
						<ele>233</ele>
						<time>2026-08-24T08:30:09Z</time>
					</trkpt>
					<trkpt lat="48.557990" lon="-0.440000">
						<ele>229</ele>
						<time>2026-08-24T08:31:59Z</time>
					</trkpt>
					<trkpt lat="48.558250" lon="-0.440870">
						<ele>227</ele>
						<time>2026-08-24T08:32:31Z</time>
					</trkpt>
					<trkpt lat="48.558510" lon="-0.441150">
						<ele>230</ele>
						<time>2026-08-24T08:32:47Z</time>
					</trkpt>
					<trkpt lat="48.558790" lon="-0.441320">
						<ele>233</ele>
						<time>2026-08-24T08:33:02Z</time>
					</trkpt>
					<trkpt lat="48.559000" lon="-0.441510">
						<ele>234</ele>
						<time>2026-08-24T08:33:14Z</time>
					</trkpt>
					<trkpt lat="48.559270" lon="-0.441570">
						<ele>237</ele>
						<time>2026-08-24T08:33:28Z</time>
					</trkpt>
					<trkpt lat="48.559330" lon="-0.441770">
						<ele>237</ele>
						<time>2026-08-24T08:33:35Z</time>
					</trkpt>
					<trkpt lat="48.559420" lon="-0.442110">
						<ele>237</ele>
						<time>2026-08-24T08:33:48Z</time>
					</trkpt>
					<trkpt lat="48.559590" lon="-0.443020">
						<ele>238</ele>
						<time>2026-08-24T08:34:19Z</time>
					</trkpt>
					<trkpt lat="48.559640" lon="-0.443460">
						<ele>238</ele>
						<time>2026-08-24T08:34:34Z</time>
					</trkpt>
					<trkpt lat="48.559760" lon="-0.444050">
						<ele>240</ele>
						<time>2026-08-24T08:34:54Z</time>
					</trkpt>
					<trkpt lat="48.559880" lon="-0.444240">
						<ele>243</ele>
						<time>2026-08-24T08:35:03Z</time>
					</trkpt>
					<trkpt lat="48.559970" lon="-0.444250">
						<ele>244</ele>
						<time>2026-08-24T08:35:07Z</time>
					</trkpt>
					<trkpt lat="48.559880" lon="-0.444240">
						<ele>243</ele>
						<time>2026-08-24T08:35:12Z</time>
					</trkpt>
					<trkpt lat="48.560050" lon="-0.445480">
						<ele>242</ele>
						<time>2026-08-24T08:35:54Z</time>
					</trkpt>
					<trkpt lat="48.560100" lon="-0.445730">
						<ele>241</ele>
						<time>2026-08-24T08:36:02Z</time>
					</trkpt>
					<trkpt lat="48.560280" lon="-0.446750">
						<ele>238</ele>
						<time>2026-08-24T08:36:37Z</time>
					</trkpt>
					<trkpt lat="48.560660" lon="-0.446500">
						<ele>240</ele>
						<time>2026-08-24T08:36:58Z</time>
					</trkpt>
					<trkpt lat="48.566440" lon="-0.438660">
						<ele>206</ele>
						<time>2026-08-24T08:43:27Z</time>
					</trkpt>
					<trkpt lat="48.566470" lon="-0.438460">
						<ele>206</ele>
						<time>2026-08-24T08:43:34Z</time>
					</trkpt>
					<trkpt lat="48.566460" lon="-0.438220">
						<ele>205</ele>
						<time>2026-08-24T08:43:42Z</time>
					</trkpt>
					<trkpt lat="48.566340" lon="-0.437970">
						<ele>204</ele>
						<time>2026-08-24T08:43:52Z</time>
					</trkpt>
					<trkpt lat="48.566170" lon="-0.437580">
						<ele>203</ele>
						<time>2026-08-24T08:44:07Z</time>
					</trkpt>
					<trkpt lat="48.566030" lon="-0.437270">
						<ele>201</ele>
						<time>2026-08-24T08:44:20Z</time>
					</trkpt>
					<trkpt lat="48.565940" lon="-0.437110">
						<ele>200</ele>
						<time>2026-08-24T08:44:27Z</time>
					</trkpt>
					<trkpt lat="48.566120" lon="-0.436580">
						<ele>200</ele>
						<time>2026-08-24T08:44:46Z</time>
					</trkpt>
					<trkpt lat="48.566490" lon="-0.436520">
						<ele>202</ele>
						<time>2026-08-24T08:45:05Z</time>
					</trkpt>
					<trkpt lat="48.566850" lon="-0.436400">
						<ele>205</ele>
						<time>2026-08-24T08:45:23Z</time>
					</trkpt>
					<trkpt lat="48.567110" lon="-0.436310">
						<ele>208</ele>
						<time>2026-08-24T08:45:37Z</time>
					</trkpt>
					<trkpt lat="48.566930" lon="-0.436640">
						<ele>207</ele>
						<time>2026-08-24T08:45:51Z</time>
					</trkpt>
					<trkpt lat="48.566800" lon="-0.436920">
						<ele>206</ele>
						<time>2026-08-24T08:46:02Z</time>
					</trkpt>
					<trkpt lat="48.566660" lon="-0.437240">
						<ele>205</ele>
						<time>2026-08-24T08:46:15Z</time>
					</trkpt>
					<trkpt lat="48.566590" lon="-0.437530">
						<ele>206</ele>
						<time>2026-08-24T08:46:25Z</time>
					</trkpt>
					<trkpt lat="48.566530" lon="-0.437950">
						<ele>206</ele>
						<time>2026-08-24T08:46:39Z</time>
					</trkpt>
					<trkpt lat="48.566470" lon="-0.438550">
						<ele>206</ele>
						<time>2026-08-24T08:46:59Z</time>
					</trkpt>
					<trkpt lat="48.566440" lon="-0.438730">
						<ele>206</ele>
						<time>2026-08-24T08:47:06Z</time>
					</trkpt>
					<trkpt lat="48.565760" lon="-0.439670">
						<ele>203</ele>
						<time>2026-08-24T08:47:52Z</time>
					</trkpt>
					<trkpt lat="48.565690" lon="-0.439810">
						<ele>203</ele>
						<time>2026-08-24T08:47:58Z</time>
					</trkpt>
					<trkpt lat="48.565670" lon="-0.439850">
						<ele>203</ele>
						<time>2026-08-24T08:47:59Z</time>
					</trkpt>
					<trkpt lat="48.565690" lon="-0.439900">
						<ele>203</ele>
						<time>2026-08-24T08:48:01Z</time>
					</trkpt>
					<trkpt lat="48.565680" lon="-0.439990">
						<ele>204</ele>
						<time>2026-08-24T08:48:04Z</time>
					</trkpt>
					<trkpt lat="48.565720" lon="-0.440180">
						<ele>203</ele>
						<time>2026-08-24T08:48:11Z</time>
					</trkpt>
					<trkpt lat="48.565730" lon="-0.440350">
						<ele>203</ele>
						<time>2026-08-24T08:48:16Z</time>
					</trkpt>
					<trkpt lat="48.565770" lon="-0.440530">
						<ele>202</ele>
						<time>2026-08-24T08:48:23Z</time>
					</trkpt>
					<trkpt lat="48.565840" lon="-0.440760">
						<ele>201</ele>
						<time>2026-08-24T08:48:31Z</time>
					</trkpt>
					<trkpt lat="48.565880" lon="-0.440830">
						<ele>202</ele>
						<time>2026-08-24T08:48:34Z</time>
					</trkpt>
					<trkpt lat="48.565900" lon="-0.440960">
						<ele>202</ele>
						<time>2026-08-24T08:48:39Z</time>
					</trkpt>
					<trkpt lat="48.565960" lon="-0.441050">
						<ele>202</ele>
						<time>2026-08-24T08:48:43Z</time>
					</trkpt>
					<trkpt lat="48.565950" lon="-0.441230">
						<ele>202</ele>
						<time>2026-08-24T08:48:49Z</time>
					</trkpt>
					<trkpt lat="48.566060" lon="-0.441350">
						<ele>203</ele>
						<time>2026-08-24T08:48:56Z</time>
					</trkpt>
					<trkpt lat="48.566130" lon="-0.441600">
						<ele>203</ele>
						<time>2026-08-24T08:49:05Z</time>
					</trkpt>
					<trkpt lat="48.566160" lon="-0.441760">
						<ele>204</ele>
						<time>2026-08-24T08:49:10Z</time>
					</trkpt>
					<trkpt lat="48.566240" lon="-0.442060">
						<ele>204</ele>
						<time>2026-08-24T08:49:21Z</time>
					</trkpt>
					<trkpt lat="48.566370" lon="-0.442750">
						<ele>204</ele>
						<time>2026-08-24T08:49:45Z</time>
					</trkpt>
					<trkpt lat="48.566440" lon="-0.443260">
						<ele>204</ele>
						<time>2026-08-24T08:50:02Z</time>
					</trkpt>
					<trkpt lat="48.566450" lon="-0.443760">
						<ele>204</ele>
						<time>2026-08-24T08:50:18Z</time>
					</trkpt>
					<trkpt lat="48.566510" lon="-0.444270">
						<ele>204</ele>
						<time>2026-08-24T08:50:36Z</time>
					</trkpt>
					<trkpt lat="48.566510" lon="-0.444740">
						<ele>204</ele>
						<time>2026-08-24T08:50:51Z</time>
					</trkpt>
					<trkpt lat="48.566620" lon="-0.444840">
						<ele>205</ele>
						<time>2026-08-24T08:50:57Z</time>
					</trkpt>
					<trkpt lat="48.566860" lon="-0.444800">
						<ele>205</ele>
						<time>2026-08-24T08:51:10Z</time>
					</trkpt>
					<trkpt lat="48.566980" lon="-0.444950">
						<ele>205</ele>
						<time>2026-08-24T08:51:17Z</time>
					</trkpt>
					<trkpt lat="48.567140" lon="-0.445180">
						<ele>205</ele>
						<time>2026-08-24T08:51:28Z</time>
					</trkpt>
					<trkpt lat="48.567390" lon="-0.445230">
						<ele>205</ele>
						<time>2026-08-24T08:51:41Z</time>
					</trkpt>
					<trkpt lat="48.567550" lon="-0.445410">
						<ele>204</ele>
						<time>2026-08-24T08:51:51Z</time>
					</trkpt>
					<trkpt lat="48.567760" lon="-0.445460">
						<ele>205</ele>
						<time>2026-08-24T08:52:02Z</time>
					</trkpt>
					<trkpt lat="48.568130" lon="-0.445470">
						<ele>207</ele>
						<time>2026-08-24T08:52:20Z</time>
					</trkpt>
					<trkpt lat="48.568650" lon="-0.445430">
						<ele>211</ele>
						<time>2026-08-24T08:52:46Z</time>
					</trkpt>
					<trkpt lat="48.568790" lon="-0.445820">
						<ele>209</ele>
						<time>2026-08-24T08:53:01Z</time>
					</trkpt>
					<trkpt lat="48.569090" lon="-0.446760">
						<ele>208</ele>
						<time>2026-08-24T08:53:35Z</time>
					</trkpt>
					<trkpt lat="48.569370" lon="-0.447270">
						<ele>209</ele>
						<time>2026-08-24T08:53:57Z</time>
					</trkpt>
					<trkpt lat="48.569690" lon="-0.448130">
						<ele>212</ele>
						<time>2026-08-24T08:54:30Z</time>
					</trkpt>
					<trkpt lat="48.570590" lon="-0.449750">
						<ele>230</ele>
						<time>2026-08-24T08:55:40Z</time>
					</trkpt>
					<trkpt lat="48.570700" lon="-0.450120">
						<ele>231</ele>
						<time>2026-08-24T08:55:54Z</time>
					</trkpt>
					<trkpt lat="48.570940" lon="-0.450540">
						<ele>233</ele>
						<time>2026-08-24T08:56:12Z</time>
					</trkpt>
					<trkpt lat="48.571160" lon="-0.450710">
						<ele>235</ele>
						<time>2026-08-24T08:56:24Z</time>
					</trkpt>
					<trkpt lat="48.571190" lon="-0.451040">
						<ele>236</ele>
						<time>2026-08-24T08:56:35Z</time>
					</trkpt>
					<trkpt lat="48.571090" lon="-0.451740">
						<ele>237</ele>
						<time>2026-08-24T08:56:59Z</time>
					</trkpt>
					<trkpt lat="48.571040" lon="-0.451920">
						<ele>236</ele>
						<time>2026-08-24T08:57:06Z</time>
					</trkpt>
					<trkpt lat="48.571000" lon="-0.452280">
						<ele>236</ele>
						<time>2026-08-24T08:57:18Z</time>
					</trkpt>
					<trkpt lat="48.571000" lon="-0.452560">
						<ele>236</ele>
						<time>2026-08-24T08:57:27Z</time>
					</trkpt>
					<trkpt lat="48.571070" lon="-0.453080">
						<ele>235</ele>
						<time>2026-08-24T08:57:44Z</time>
					</trkpt>
					<trkpt lat="48.571140" lon="-0.453310">
						<ele>235</ele>
						<time>2026-08-24T08:57:53Z</time>
					</trkpt>
					<trkpt lat="48.571150" lon="-0.453340">
						<ele>235</ele>
						<time>2026-08-24T08:57:54Z</time>
					</trkpt>
					<trkpt lat="48.571340" lon="-0.453460">
						<ele>237</ele>
						<time>2026-08-24T08:58:04Z</time>
					</trkpt>
					<trkpt lat="48.571600" lon="-0.453820">
						<ele>239</ele>
						<time>2026-08-24T08:58:22Z</time>
					</trkpt>
					<trkpt lat="48.571810" lon="-0.453700">
						<ele>242</ele>
						<time>2026-08-24T08:58:33Z</time>
					</trkpt>
					<trkpt lat="48.572060" lon="-0.453780">
						<ele>244</ele>
						<time>2026-08-24T08:58:46Z</time>
					</trkpt>
					<trkpt lat="48.572270" lon="-0.454040">
						<ele>246</ele>
						<time>2026-08-24T08:59:00Z</time>
					</trkpt>
					<trkpt lat="48.572410" lon="-0.454350">
						<ele>247</ele>
						<time>2026-08-24T08:59:12Z</time>
					</trkpt>
					<trkpt lat="48.572600" lon="-0.454400">
						<ele>249</ele>
						<time>2026-08-24T08:59:22Z</time>
					</trkpt>
					<trkpt lat="48.572720" lon="-0.454300">
						<ele>250</ele>
						<time>2026-08-24T08:59:28Z</time>
					</trkpt>
					<trkpt lat="48.572790" lon="-0.454240">
						<ele>251</ele>
						<time>2026-08-24T08:59:32Z</time>
					</trkpt>
					<trkpt lat="48.572720" lon="-0.454300">
						<ele>250</ele>
						<time>2026-08-24T08:59:37Z</time>
					</trkpt>
					<trkpt lat="48.572990" lon="-0.455050">
						<ele>250</ele>
						<time>2026-08-24T09:00:05Z</time>
					</trkpt>
					<trkpt lat="48.573150" lon="-0.455380">
						<ele>250</ele>
						<time>2026-08-24T09:00:18Z</time>
					</trkpt>
					<trkpt lat="48.573280" lon="-0.455990">
						<ele>250</ele>
						<time>2026-08-24T09:00:40Z</time>
					</trkpt>
					<trkpt lat="48.573470" lon="-0.456120">
						<ele>250</ele>
						<time>2026-08-24T09:00:50Z</time>
					</trkpt>
					<trkpt lat="48.573620" lon="-0.456370">
						<ele>250</ele>
						<time>2026-08-24T09:01:01Z</time>
					</trkpt>
					<trkpt lat="48.573690" lon="-0.456740">
						<ele>249</ele>
						<time>2026-08-24T09:01:14Z</time>
					</trkpt>
					<trkpt lat="48.573870" lon="-0.456990">
						<ele>249</ele>
						<time>2026-08-24T09:01:26Z</time>
					</trkpt>
					<trkpt lat="48.574020" lon="-0.457330">
						<ele>248</ele>
						<time>2026-08-24T09:01:40Z</time>
					</trkpt>
					<trkpt lat="48.574160" lon="-0.457720">
						<ele>248</ele>
						<time>2026-08-24T09:01:54Z</time>
					</trkpt>
					<trkpt lat="48.574260" lon="-0.458130">
						<ele>246</ele>
						<time>2026-08-24T09:02:09Z</time>
					</trkpt>
					<trkpt lat="48.574470" lon="-0.458410">
						<ele>248</ele>
						<time>2026-08-24T09:02:23Z</time>
					</trkpt>
					<trkpt lat="48.574520" lon="-0.458790">
						<ele>247</ele>
						<time>2026-08-24T09:02:36Z</time>
					</trkpt>
					<trkpt lat="48.574650" lon="-0.459050">
						<ele>248</ele>
						<time>2026-08-24T09:02:46Z</time>
					</trkpt>
					<trkpt lat="48.574670" lon="-0.459210">
						<ele>248</ele>
						<time>2026-08-24T09:02:52Z</time>
					</trkpt>
					<trkpt lat="48.574410" lon="-0.459580">
						<ele>244</ele>
						<time>2026-08-24T09:03:10Z</time>
					</trkpt>
					<trkpt lat="48.574510" lon="-0.459970">
						<ele>245</ele>
						<time>2026-08-24T09:03:24Z</time>
					</trkpt>
					<trkpt lat="48.574450" lon="-0.460190">
						<ele>244</ele>
						<time>2026-08-24T09:03:31Z</time>
					</trkpt>
					<trkpt lat="48.574550" lon="-0.460440">
						<ele>245</ele>
						<time>2026-08-24T09:03:41Z</time>
					</trkpt>
					<trkpt lat="48.574670" lon="-0.460690">
						<ele>246</ele>
						<time>2026-08-24T09:03:51Z</time>
					</trkpt>
					<trkpt lat="48.574830" lon="-0.461270">
						<ele>248</ele>
						<time>2026-08-24T09:04:12Z</time>
					</trkpt>
					<trkpt lat="48.575000" lon="-0.461560">
						<ele>251</ele>
						<time>2026-08-24T09:04:25Z</time>
					</trkpt>
					<trkpt lat="48.575440" lon="-0.461130">
						<ele>256</ele>
						<time>2026-08-24T09:04:51Z</time>
					</trkpt>
					<trkpt lat="48.575590" lon="-0.461430">
						<ele>259</ele>
						<time>2026-08-24T09:05:04Z</time>
					</trkpt>
					<trkpt lat="48.575590" lon="-0.461880">
						<ele>259</ele>
						<time>2026-08-24T09:05:19Z</time>
					</trkpt>
					<trkpt lat="48.575700" lon="-0.462370">
						<ele>259</ele>
						<time>2026-08-24T09:05:36Z</time>
					</trkpt>
					<trkpt lat="48.575800" lon="-0.463020">
						<ele>259</ele>
						<time>2026-08-24T09:05:58Z</time>
					</trkpt>
					<trkpt lat="48.575870" lon="-0.463220">
						<ele>259</ele>
						<time>2026-08-24T09:06:05Z</time>
					</trkpt>
					<trkpt lat="48.576000" lon="-0.463450">
						<ele>259</ele>
						<time>2026-08-24T09:06:15Z</time>
					</trkpt>
					<trkpt lat="48.576270" lon="-0.463660">
						<ele>260</ele>
						<time>2026-08-24T09:06:30Z</time>
					</trkpt>
					<trkpt lat="48.576400" lon="-0.464110">
						<ele>260</ele>
						<time>2026-08-24T09:06:47Z</time>
					</trkpt>
					<trkpt lat="48.576330" lon="-0.464470">
						<ele>260</ele>
						<time>2026-08-24T09:06:59Z</time>
					</trkpt>
					<trkpt lat="48.576370" lon="-0.464690">
						<ele>259</ele>
						<time>2026-08-24T09:07:07Z</time>
					</trkpt>
					<trkpt lat="48.576490" lon="-0.464640">
						<ele>260</ele>
						<time>2026-08-24T09:07:13Z</time>
					</trkpt>
					<trkpt lat="48.576690" lon="-0.464590">
						<ele>261</ele>
						<time>2026-08-24T09:07:23Z</time>
					</trkpt>
					<trkpt lat="48.576870" lon="-0.464510">
						<ele>260</ele>
						<time>2026-08-24T09:07:32Z</time>
					</trkpt>
					<trkpt lat="48.576930" lon="-0.464410">
						<ele>260</ele>
						<time>2026-08-24T09:07:37Z</time>
					</trkpt>
					<trkpt lat="48.577060" lon="-0.464150">
						<ele>260</ele>
						<time>2026-08-24T09:07:48Z</time>
					</trkpt>
					<trkpt lat="48.577230" lon="-0.463850">
						<ele>258</ele>
						<time>2026-08-24T09:08:01Z</time>
					</trkpt>
					<trkpt lat="48.577230" lon="-0.463850">
						<ele>258</ele>
						<time>2026-08-24T09:08:01Z</time>
					</trkpt>
					<trkpt lat="48.580880" lon="-0.457290">
						<ele>231</ele>
						<time>2026-08-24T09:12:45Z</time>
					</trkpt>
					<trkpt lat="48.582030" lon="-0.455230">
						<ele>243</ele>
						<time>2026-08-24T09:14:14Z</time>
					</trkpt>
					<trkpt lat="48.583090" lon="-0.453310">
						<ele>245</ele>
						<time>2026-08-24T09:15:37Z</time>
					</trkpt>
					<trkpt lat="48.584310" lon="-0.451120">
						<ele>245</ele>
						<time>2026-08-24T09:17:11Z</time>
					</trkpt>
					<trkpt lat="48.584470" lon="-0.450830">
						<ele>245</ele>
						<time>2026-08-24T09:17:24Z</time>
					</trkpt>
					<trkpt lat="48.584470" lon="-0.450820">
						<ele>245</ele>
						<time>2026-08-24T09:17:24Z</time>
					</trkpt>
					<trkpt lat="48.584470" lon="-0.450820">
						<ele>245</ele>
						<time>2026-08-24T09:17:24Z</time>
					</trkpt>
					<trkpt lat="48.584610" lon="-0.450560">
						<ele>246</ele>
						<time>2026-08-24T09:17:35Z</time>
					</trkpt>
					<trkpt lat="48.585130" lon="-0.449680">
						<ele>250</ele>
						<time>2026-08-24T09:18:14Z</time>
					</trkpt>
					<trkpt lat="48.585710" lon="-0.448720">
						<ele>253</ele>
						<time>2026-08-24T09:18:57Z</time>
					</trkpt>
					<trkpt lat="48.585590" lon="-0.446570">
						<ele>255</ele>
						<time>2026-08-24T09:20:09Z</time>
					</trkpt>
					<trkpt lat="48.585680" lon="-0.446540">
						<ele>255</ele>
						<time>2026-08-24T09:20:13Z</time>
					</trkpt>
					<trkpt lat="48.585740" lon="-0.446450">
						<ele>255</ele>
						<time>2026-08-24T09:20:18Z</time>
					</trkpt>
					<trkpt lat="48.585800" lon="-0.446270">
						<ele>254</ele>
						<time>2026-08-24T09:20:24Z</time>
					</trkpt>
					<trkpt lat="48.585880" lon="-0.445790">
						<ele>252</ele>
						<time>2026-08-24T09:20:41Z</time>
					</trkpt>
					<trkpt lat="48.585950" lon="-0.445320">
						<ele>249</ele>
						<time>2026-08-24T09:20:57Z</time>
					</trkpt>
					<trkpt lat="48.585970" lon="-0.445150">
						<ele>248</ele>
						<time>2026-08-24T09:21:02Z</time>
					</trkpt>
					<trkpt lat="48.585940" lon="-0.444810">
						<ele>247</ele>
						<time>2026-08-24T09:21:14Z</time>
					</trkpt>
					<trkpt lat="48.585900" lon="-0.444580">
						<ele>245</ele>
						<time>2026-08-24T09:21:22Z</time>
					</trkpt>
					<trkpt lat="48.585910" lon="-0.444340">
						<ele>244</ele>
						<time>2026-08-24T09:21:30Z</time>
					</trkpt>
					<trkpt lat="48.585950" lon="-0.444130">
						<ele>242</ele>
						<time>2026-08-24T09:21:37Z</time>
					</trkpt>
					<trkpt lat="48.586030" lon="-0.444010">
						<ele>240</ele>
						<time>2026-08-24T09:21:42Z</time>
					</trkpt>
					<trkpt lat="48.586140" lon="-0.443970">
						<ele>238</ele>
						<time>2026-08-24T09:21:48Z</time>
					</trkpt>
					<trkpt lat="48.586290" lon="-0.444020">
						<ele>238</ele>
						<time>2026-08-24T09:21:56Z</time>
					</trkpt>
					<trkpt lat="48.586650" lon="-0.444220">
						<ele>239</ele>
						<time>2026-08-24T09:22:15Z</time>
					</trkpt>
					<trkpt lat="48.586800" lon="-0.444260">
						<ele>237</ele>
						<time>2026-08-24T09:22:23Z</time>
					</trkpt>
					<trkpt lat="48.586940" lon="-0.444340">
						<ele>235</ele>
						<time>2026-08-24T09:22:30Z</time>
					</trkpt>
					<trkpt lat="48.587150" lon="-0.444820">
						<ele>236</ele>
						<time>2026-08-24T09:22:49Z</time>
					</trkpt>
					<trkpt lat="48.587250" lon="-0.445160">
						<ele>237</ele>
						<time>2026-08-24T09:23:01Z</time>
					</trkpt>
					<trkpt lat="48.587300" lon="-0.445270">
						<ele>238</ele>
						<time>2026-08-24T09:23:06Z</time>
					</trkpt>
					<trkpt lat="48.587350" lon="-0.445440">
						<ele>238</ele>
						<time>2026-08-24T09:23:12Z</time>
					</trkpt>
					<trkpt lat="48.587400" lon="-0.445520">
						<ele>238</ele>
						<time>2026-08-24T09:23:16Z</time>
					</trkpt>
					<trkpt lat="48.587510" lon="-0.445730">
						<ele>238</ele>
						<time>2026-08-24T09:23:25Z</time>
					</trkpt>
					<trkpt lat="48.587540" lon="-0.445920">
						<ele>239</ele>
						<time>2026-08-24T09:23:31Z</time>
					</trkpt>
					<trkpt lat="48.587600" lon="-0.446160">
						<ele>238</ele>
						<time>2026-08-24T09:23:40Z</time>
					</trkpt>
					<trkpt lat="48.587630" lon="-0.446300">
						<ele>238</ele>
						<time>2026-08-24T09:23:44Z</time>
					</trkpt>
					<trkpt lat="48.587720" lon="-0.446550">
						<ele>237</ele>
						<time>2026-08-24T09:23:54Z</time>
					</trkpt>
					<trkpt lat="48.587770" lon="-0.446680">
						<ele>237</ele>
						<time>2026-08-24T09:23:59Z</time>
					</trkpt>
					<trkpt lat="48.587840" lon="-0.447070">
						<ele>237</ele>
						<time>2026-08-24T09:24:12Z</time>
					</trkpt>
					<trkpt lat="48.587860" lon="-0.447270">
						<ele>237</ele>
						<time>2026-08-24T09:24:19Z</time>
					</trkpt>
					<trkpt lat="48.587830" lon="-0.447390">
						<ele>238</ele>
						<time>2026-08-24T09:24:23Z</time>
					</trkpt>
					<trkpt lat="48.587780" lon="-0.447540">
						<ele>238</ele>
						<time>2026-08-24T09:24:29Z</time>
					</trkpt>
					<trkpt lat="48.587710" lon="-0.447660">
						<ele>239</ele>
						<time>2026-08-24T09:24:34Z</time>
					</trkpt>
					<trkpt lat="48.587680" lon="-0.447810">
						<ele>240</ele>
						<time>2026-08-24T09:24:39Z</time>
					</trkpt>
					<trkpt lat="48.587640" lon="-0.448040">
						<ele>241</ele>
						<time>2026-08-24T09:24:47Z</time>
					</trkpt>
					<trkpt lat="48.587610" lon="-0.448330">
						<ele>242</ele>
						<time>2026-08-24T09:24:57Z</time>
					</trkpt>
					<trkpt lat="48.587620" lon="-0.448650">
						<ele>242</ele>
						<time>2026-08-24T09:25:07Z</time>
					</trkpt>
					<trkpt lat="48.587640" lon="-0.449020">
						<ele>241</ele>
						<time>2026-08-24T09:25:20Z</time>
					</trkpt>
					<trkpt lat="48.587660" lon="-0.449140">
						<ele>241</ele>
						<time>2026-08-24T09:25:24Z</time>
					</trkpt>
					<trkpt lat="48.587690" lon="-0.449480">
						<ele>240</ele>
						<time>2026-08-24T09:25:35Z</time>
					</trkpt>
					<trkpt lat="48.587700" lon="-0.449670">
						<ele>240</ele>
						<time>2026-08-24T09:25:41Z</time>
					</trkpt>
					<trkpt lat="48.587700" lon="-0.450070">
						<ele>239</ele>
						<time>2026-08-24T09:25:55Z</time>
					</trkpt>
					<trkpt lat="48.587630" lon="-0.450140">
						<ele>239</ele>
						<time>2026-08-24T09:25:59Z</time>
					</trkpt>
					<trkpt lat="48.587570" lon="-0.450220">
						<ele>239</ele>
						<time>2026-08-24T09:26:03Z</time>
					</trkpt>
					<trkpt lat="48.589340" lon="-0.451670">
						<ele>244</ele>
						<time>2026-08-24T09:27:44Z</time>
					</trkpt>
					<trkpt lat="48.590220" lon="-0.452430">
						<ele>255</ele>
						<time>2026-08-24T09:28:34Z</time>
					</trkpt>
					<trkpt lat="48.590470" lon="-0.452640">
						<ele>259</ele>
						<time>2026-08-24T09:28:49Z</time>
					</trkpt>
					<trkpt lat="48.591080" lon="-0.453210">
						<ele>269</ele>
						<time>2026-08-24T09:29:25Z</time>
					</trkpt>
					<trkpt lat="48.591180" lon="-0.453240">
						<ele>270</ele>
						<time>2026-08-24T09:29:30Z</time>
					</trkpt>
					<trkpt lat="48.592590" lon="-0.454390">
						<ele>278</ele>
						<time>2026-08-24T09:30:50Z</time>
					</trkpt>
					<trkpt lat="48.592470" lon="-0.453080">
						<ele>275</ele>
						<time>2026-08-24T09:31:34Z</time>
					</trkpt>
					<trkpt lat="48.592560" lon="-0.452570">
						<ele>272</ele>
						<time>2026-08-24T09:31:51Z</time>
					</trkpt>
					<trkpt lat="48.592750" lon="-0.452240">
						<ele>267</ele>
						<time>2026-08-24T09:32:06Z</time>
					</trkpt>
					<trkpt lat="48.592840" lon="-0.452170">
						<ele>266</ele>
						<time>2026-08-24T09:32:11Z</time>
					</trkpt>
					<trkpt lat="48.593900" lon="-0.452080">
						<ele>256</ele>
						<time>2026-08-24T09:33:04Z</time>
					</trkpt>
					<trkpt lat="48.593990" lon="-0.452020">
						<ele>254</ele>
						<time>2026-08-24T09:33:09Z</time>
					</trkpt>
					<trkpt lat="48.594210" lon="-0.451960">
						<ele>251</ele>
						<time>2026-08-24T09:33:20Z</time>
					</trkpt>
					<trkpt lat="48.595380" lon="-0.452030">
						<ele>247</ele>
						<time>2026-08-24T09:34:18Z</time>
					</trkpt>
					<trkpt lat="48.596130" lon="-0.448410">
						<ele>228</ele>
						<time>2026-08-24T09:36:24Z</time>
					</trkpt>
					<trkpt lat="48.596490" lon="-0.446620">
						<ele>241</ele>
						<time>2026-08-24T09:37:26Z</time>
					</trkpt>
					<trkpt lat="48.596530" lon="-0.446280">
						<ele>244</ele>
						<time>2026-08-24T09:37:37Z</time>
					</trkpt>
					<trkpt lat="48.596630" lon="-0.445910">
						<ele>246</ele>
						<time>2026-08-24T09:37:51Z</time>
					</trkpt>
					<trkpt lat="48.596890" lon="-0.445850">
						<ele>249</ele>
						<time>2026-08-24T09:38:04Z</time>
					</trkpt>
					<trkpt lat="48.597840" lon="-0.446010">
						<ele>254</ele>
						<time>2026-08-24T09:38:52Z</time>
					</trkpt>
					<trkpt lat="48.598010" lon="-0.445970">
						<ele>256</ele>
						<time>2026-08-24T09:39:00Z</time>
					</trkpt>
					<trkpt lat="48.598170" lon="-0.445870">
						<ele>258</ele>
						<time>2026-08-24T09:39:09Z</time>
					</trkpt>
					<trkpt lat="48.598260" lon="-0.445630">
						<ele>259</ele>
						<time>2026-08-24T09:39:18Z</time>
					</trkpt>
					<trkpt lat="48.598310" lon="-0.445410">
						<ele>260</ele>
						<time>2026-08-24T09:39:26Z</time>
					</trkpt>
					<trkpt lat="48.598330" lon="-0.445270">
						<ele>261</ele>
						<time>2026-08-24T09:39:30Z</time>
					</trkpt>
					<trkpt lat="48.598250" lon="-0.444190">
						<ele>260</ele>
						<time>2026-08-24T09:40:06Z</time>
					</trkpt>
					<trkpt lat="48.598130" lon="-0.443730">
						<ele>257</ele>
						<time>2026-08-24T09:40:23Z</time>
					</trkpt>
					<trkpt lat="48.597990" lon="-0.443500">
						<ele>256</ele>
						<time>2026-08-24T09:40:33Z</time>
					</trkpt>
					<trkpt lat="48.597770" lon="-0.443310">
						<ele>255</ele>
						<time>2026-08-24T09:40:46Z</time>
					</trkpt>
					<trkpt lat="48.597630" lon="-0.443050">
						<ele>254</ele>
						<time>2026-08-24T09:40:57Z</time>
					</trkpt>
					<trkpt lat="48.597350" lon="-0.442380">
						<ele>250</ele>
						<time>2026-08-24T09:41:23Z</time>
					</trkpt>
					<trkpt lat="48.597440" lon="-0.441950">
						<ele>247</ele>
						<time>2026-08-24T09:41:38Z</time>
					</trkpt>
					<trkpt lat="48.597620" lon="-0.441070">
						<ele>245</ele>
						<time>2026-08-24T09:42:08Z</time>
					</trkpt>
					<trkpt lat="48.597680" lon="-0.441100">
						<ele>245</ele>
						<time>2026-08-24T09:42:12Z</time>
					</trkpt>
					<trkpt lat="48.597620" lon="-0.441070">
						<ele>245</ele>
						<time>2026-08-24T09:42:15Z</time>
					</trkpt>
					<trkpt lat="48.598420" lon="-0.437050">
						<ele>241</ele>
						<time>2026-08-24T09:44:34Z</time>
					</trkpt>
					<trkpt lat="48.598700" lon="-0.435620">
						<ele>245</ele>
						<time>2026-08-24T09:45:23Z</time>
					</trkpt>
					<trkpt lat="48.599100" lon="-0.433590">
						<ele>247</ele>
						<time>2026-08-24T09:46:33Z</time>
					</trkpt>
					<trkpt lat="48.599480" lon="-0.431670">
						<ele>251</ele>
						<time>2026-08-24T09:47:40Z</time>
					</trkpt>
					<trkpt lat="48.599570" lon="-0.431240">
						<ele>252</ele>
						<time>2026-08-24T09:47:54Z</time>
					</trkpt>
					<trkpt lat="48.599820" lon="-0.429910">
						<ele>252</ele>
						<time>2026-08-24T09:48:40Z</time>
					</trkpt>
					<trkpt lat="48.600030" lon="-0.428780">
						<ele>250</ele>
						<time>2026-08-24T09:49:19Z</time>
					</trkpt>
					<trkpt lat="48.600020" lon="-0.428600">
						<ele>249</ele>
						<time>2026-08-24T09:49:25Z</time>
					</trkpt>
					<trkpt lat="48.600020" lon="-0.428480">
						<ele>248</ele>
						<time>2026-08-24T09:49:29Z</time>
					</trkpt>
					<trkpt lat="48.599850" lon="-0.428180">
						<ele>246</ele>
						<time>2026-08-24T09:49:42Z</time>
					</trkpt>
					<trkpt lat="48.599820" lon="-0.428080">
						<ele>245</ele>
						<time>2026-08-24T09:49:46Z</time>
					</trkpt>
					<trkpt lat="48.599830" lon="-0.427980">
						<ele>245</ele>
						<time>2026-08-24T09:49:49Z</time>
					</trkpt>
					<trkpt lat="48.599930" lon="-0.427920">
						<ele>245</ele>
						<time>2026-08-24T09:49:54Z</time>
					</trkpt>
					<trkpt lat="48.600060" lon="-0.427870">
						<ele>245</ele>
						<time>2026-08-24T09:50:01Z</time>
					</trkpt>
					<trkpt lat="48.600190" lon="-0.427800">
						<ele>244</ele>
						<time>2026-08-24T09:50:08Z</time>
					</trkpt>
					<trkpt lat="48.600230" lon="-0.427680">
						<ele>244</ele>
						<time>2026-08-24T09:50:12Z</time>
					</trkpt>
					<trkpt lat="48.600600" lon="-0.425840">
						<ele>236</ele>
						<time>2026-08-24T09:51:16Z</time>
					</trkpt>
					<trkpt lat="48.600930" lon="-0.424120">
						<ele>220</ele>
						<time>2026-08-24T09:52:15Z</time>
					</trkpt>
					<trkpt lat="48.600960" lon="-0.423990">
						<ele>218</ele>
						<time>2026-08-24T09:52:20Z</time>
					</trkpt>
					<trkpt lat="48.601025" lon="-0.423878">
						<ele>216</ele>
						<time>2026-08-24T09:52:25Z</time>
					</trkpt>
					<trkpt lat="48.601030" lon="-0.423870">
						<ele>215</ele>
						<time>2026-08-24T09:52:25Z</time>
					</trkpt>
					<trkpt lat="48.601010" lon="-0.423770">
						<ele>214</ele>
						<time>2026-08-24T09:52:29Z</time>
					</trkpt>
					<trkpt lat="48.600930" lon="-0.423770">
						<ele>215</ele>
						<time>2026-08-24T09:52:33Z</time>
					</trkpt>
					<trkpt lat="48.600860" lon="-0.423790">
						<ele>215</ele>
						<time>2026-08-24T09:52:36Z</time>
					</trkpt>
					<trkpt lat="48.600770" lon="-0.423790">
						<ele>216</ele>
						<time>2026-08-24T09:52:41Z</time>
					</trkpt>
					<trkpt lat="48.600770" lon="-0.423790">
						<ele>216</ele>
						<time>2026-08-24T09:52:41Z</time>
					</trkpt>
					<trkpt lat="48.600440" lon="-0.423780">
						<ele>219</ele>
						<time>2026-08-24T09:52:57Z</time>
					</trkpt>
					<trkpt lat="48.600120" lon="-0.423330">
						<ele>218</ele>
						<time>2026-08-24T09:53:19Z</time>
					</trkpt>
					<trkpt lat="48.599910" lon="-0.423240">
						<ele>219</ele>
						<time>2026-08-24T09:53:30Z</time>
					</trkpt>
					<trkpt lat="48.599800" lon="-0.423060">
						<ele>218</ele>
						<time>2026-08-24T09:53:38Z</time>
					</trkpt>
					<trkpt lat="48.599730" lon="-0.422930">
						<ele>217</ele>
						<time>2026-08-24T09:53:44Z</time>
					</trkpt>
					<trkpt lat="48.599590" lon="-0.422520">
						<ele>215</ele>
						<time>2026-08-24T09:53:59Z</time>
					</trkpt>
					<trkpt lat="48.599460" lon="-0.422360">
						<ele>214</ele>
						<time>2026-08-24T09:54:07Z</time>
					</trkpt>
					<trkpt lat="48.599280" lon="-0.422270">
						<ele>216</ele>
						<time>2026-08-24T09:54:17Z</time>
					</trkpt>
					<trkpt lat="48.598840" lon="-0.422120">
						<ele>215</ele>
						<time>2026-08-24T09:54:39Z</time>
					</trkpt>
					<trkpt lat="48.597750" lon="-0.422060">
						<ele>214</ele>
						<time>2026-08-24T09:55:34Z</time>
					</trkpt>
					<trkpt lat="48.597420" lon="-0.422100">
						<ele>213</ele>
						<time>2026-08-24T09:55:51Z</time>
					</trkpt>
					<trkpt lat="48.597080" lon="-0.422180">
						<ele>213</ele>
						<time>2026-08-24T09:56:08Z</time>
					</trkpt>
					<trkpt lat="48.596820" lon="-0.422310">
						<ele>214</ele>
						<time>2026-08-24T09:56:22Z</time>
					</trkpt>
					<trkpt lat="48.596630" lon="-0.422570">
						<ele>216</ele>
						<time>2026-08-24T09:56:34Z</time>
					</trkpt>
					<trkpt lat="48.596500" lon="-0.422760">
						<ele>217</ele>
						<time>2026-08-24T09:56:43Z</time>
					</trkpt>
					<trkpt lat="48.596330" lon="-0.423020">
						<ele>219</ele>
						<time>2026-08-24T09:56:56Z</time>
					</trkpt>
					<trkpt lat="48.596230" lon="-0.423100">
						<ele>220</ele>
						<time>2026-08-24T09:57:01Z</time>
					</trkpt>
					<trkpt lat="48.596070" lon="-0.423190">
						<ele>220</ele>
						<time>2026-08-24T09:57:10Z</time>
					</trkpt>
					<trkpt lat="48.595750" lon="-0.423140">
						<ele>220</ele>
						<time>2026-08-24T09:57:26Z</time>
					</trkpt>
					<trkpt lat="48.594520" lon="-0.422470">
						<ele>214</ele>
						<time>2026-08-24T09:58:31Z</time>
					</trkpt>
					<trkpt lat="48.593950" lon="-0.422180">
						<ele>212</ele>
						<time>2026-08-24T09:59:01Z</time>
					</trkpt>
					<trkpt lat="48.593710" lon="-0.422280">
						<ele>212</ele>
						<time>2026-08-24T09:59:14Z</time>
					</trkpt>
					<trkpt lat="48.593710" lon="-0.422430">
						<ele>213</ele>
						<time>2026-08-24T09:59:19Z</time>
					</trkpt>
					<trkpt lat="48.593710" lon="-0.422620">
						<ele>214</ele>
						<time>2026-08-24T09:59:25Z</time>
					</trkpt>
					<trkpt lat="48.593730" lon="-0.422680">
						<ele>215</ele>
						<time>2026-08-24T09:59:27Z</time>
					</trkpt>
					<trkpt lat="48.593770" lon="-0.422780">
						<ele>216</ele>
						<time>2026-08-24T09:59:31Z</time>
					</trkpt>
					<trkpt lat="48.593900" lon="-0.423330">
						<ele>219</ele>
						<time>2026-08-24T09:59:50Z</time>
					</trkpt>
					<trkpt lat="48.593920" lon="-0.423560">
						<ele>220</ele>
						<time>2026-08-24T09:59:58Z</time>
					</trkpt>
					<trkpt lat="48.594120" lon="-0.424220">
						<ele>223</ele>
						<time>2026-08-24T10:00:22Z</time>
					</trkpt>
					<trkpt lat="48.594240" lon="-0.424600">
						<ele>224</ele>
						<time>2026-08-24T10:00:36Z</time>
					</trkpt>
					<trkpt lat="48.594270" lon="-0.424680">
						<ele>224</ele>
						<time>2026-08-24T10:00:39Z</time>
					</trkpt>
					<trkpt lat="48.594460" lon="-0.424950">
						<ele>226</ele>
						<time>2026-08-24T10:00:52Z</time>
					</trkpt>
					<trkpt lat="48.594850" lon="-0.425370">
						<ele>230</ele>
						<time>2026-08-24T10:01:16Z</time>
					</trkpt>
					<trkpt lat="48.595010" lon="-0.425600">
						<ele>232</ele>
						<time>2026-08-24T10:01:27Z</time>
					</trkpt>
					<trkpt lat="48.595150" lon="-0.425720">
						<ele>233</ele>
						<time>2026-08-24T10:01:35Z</time>
					</trkpt>
					<trkpt lat="48.595270" lon="-0.425900">
						<ele>234</ele>
						<time>2026-08-24T10:01:44Z</time>
					</trkpt>
					<trkpt lat="48.595460" lon="-0.426120">
						<ele>234</ele>
						<time>2026-08-24T10:01:56Z</time>
					</trkpt>
					<trkpt lat="48.595740" lon="-0.426820">
						<ele>235</ele>
						<time>2026-08-24T10:02:23Z</time>
					</trkpt>
					<trkpt lat="48.595230" lon="-0.429250">
						<ele>224</ele>
						<time>2026-08-24T10:03:47Z</time>
					</trkpt>
					<trkpt lat="48.594670" lon="-0.431940">
						<ele>224</ele>
						<time>2026-08-24T10:05:20Z</time>
					</trkpt>
					<trkpt lat="48.594310" lon="-0.433640">
						<ele>225</ele>
						<time>2026-08-24T10:06:20Z</time>
					</trkpt>
					<trkpt lat="48.593500" lon="-0.437640">
						<ele>238</ele>
						<time>2026-08-24T10:08:38Z</time>
					</trkpt>
					<trkpt lat="48.593370" lon="-0.438060">
						<ele>238</ele>
						<time>2026-08-24T10:08:53Z</time>
					</trkpt>
					<trkpt lat="48.593230" lon="-0.438050">
						<ele>237</ele>
						<time>2026-08-24T10:09:00Z</time>
					</trkpt>
					<trkpt lat="48.593130" lon="-0.438000">
						<ele>237</ele>
						<time>2026-08-24T10:09:06Z</time>
					</trkpt>
					<trkpt lat="48.592920" lon="-0.437860">
						<ele>236</ele>
						<time>2026-08-24T10:09:17Z</time>
					</trkpt>
					<trkpt lat="48.592800" lon="-0.437840">
						<ele>235</ele>
						<time>2026-08-24T10:09:23Z</time>
					</trkpt>
					<trkpt lat="48.592540" lon="-0.437920">
						<ele>234</ele>
						<time>2026-08-24T10:09:36Z</time>
					</trkpt>
					<trkpt lat="48.592480" lon="-0.437970">
						<ele>233</ele>
						<time>2026-08-24T10:09:40Z</time>
					</trkpt>
					<trkpt lat="48.592350" lon="-0.438040">
						<ele>234</ele>
						<time>2026-08-24T10:09:47Z</time>
					</trkpt>
					<trkpt lat="48.592240" lon="-0.438030">
						<ele>234</ele>
						<time>2026-08-24T10:09:52Z</time>
					</trkpt>
					<trkpt lat="48.592140" lon="-0.438050">
						<ele>234</ele>
						<time>2026-08-24T10:09:57Z</time>
					</trkpt>
					<trkpt lat="48.592060" lon="-0.438100">
						<ele>234</ele>
						<time>2026-08-24T10:10:02Z</time>
					</trkpt>
					<trkpt lat="48.591820" lon="-0.438100">
						<ele>235</ele>
						<time>2026-08-24T10:10:14Z</time>
					</trkpt>
					<trkpt lat="48.591700" lon="-0.438080">
						<ele>235</ele>
						<time>2026-08-24T10:10:20Z</time>
					</trkpt>
					<trkpt lat="48.591640" lon="-0.438100">
						<ele>235</ele>
						<time>2026-08-24T10:10:23Z</time>
					</trkpt>
					<trkpt lat="48.591610" lon="-0.438130">
						<ele>235</ele>
						<time>2026-08-24T10:10:25Z</time>
					</trkpt>
					<trkpt lat="48.591580" lon="-0.438170">
						<ele>236</ele>
						<time>2026-08-24T10:10:27Z</time>
					</trkpt>
					<trkpt lat="48.591570" lon="-0.438410">
						<ele>238</ele>
						<time>2026-08-24T10:10:35Z</time>
					</trkpt>
					<trkpt lat="48.591580" lon="-0.438500">
						<ele>239</ele>
						<time>2026-08-24T10:10:38Z</time>
					</trkpt>
					<trkpt lat="48.591670" lon="-0.438600">
						<ele>240</ele>
						<time>2026-08-24T10:10:43Z</time>
					</trkpt>
					<trkpt lat="48.591750" lon="-0.438620">
						<ele>240</ele>
						<time>2026-08-24T10:10:47Z</time>
					</trkpt>
					<trkpt lat="48.591850" lon="-0.438730">
						<ele>241</ele>
						<time>2026-08-24T10:10:53Z</time>
					</trkpt>
					<trkpt lat="48.591970" lon="-0.438800">
						<ele>241</ele>
						<time>2026-08-24T10:11:00Z</time>
					</trkpt>
					<trkpt lat="48.592060" lon="-0.438900">
						<ele>242</ele>
						<time>2026-08-24T10:11:05Z</time>
					</trkpt>
					<trkpt lat="48.592220" lon="-0.438950">
						<ele>241</ele>
						<time>2026-08-24T10:11:14Z</time>
					</trkpt>
					<trkpt lat="48.592280" lon="-0.438980">
						<ele>242</ele>
						<time>2026-08-24T10:11:17Z</time>
					</trkpt>
					<trkpt lat="48.592470" lon="-0.439040">
						<ele>242</ele>
						<time>2026-08-24T10:11:27Z</time>
					</trkpt>
					<trkpt lat="48.592510" lon="-0.439080">
						<ele>242</ele>
						<time>2026-08-24T10:11:29Z</time>
					</trkpt>
					<trkpt lat="48.592610" lon="-0.439120">
						<ele>242</ele>
						<time>2026-08-24T10:11:34Z</time>
					</trkpt>
					<trkpt lat="48.592650" lon="-0.439110">
						<ele>242</ele>
						<time>2026-08-24T10:11:36Z</time>
					</trkpt>
					<trkpt lat="48.592750" lon="-0.439120">
						<ele>242</ele>
						<time>2026-08-24T10:11:41Z</time>
					</trkpt>
					<trkpt lat="48.592830" lon="-0.439110">
						<ele>242</ele>
						<time>2026-08-24T10:11:45Z</time>
					</trkpt>
					<trkpt lat="48.592880" lon="-0.439120">
						<ele>242</ele>
						<time>2026-08-24T10:11:48Z</time>
					</trkpt>
					<trkpt lat="48.593140" lon="-0.439060">
						<ele>242</ele>
						<time>2026-08-24T10:12:01Z</time>
					</trkpt>
					<trkpt lat="48.593200" lon="-0.439100">
						<ele>242</ele>
						<time>2026-08-24T10:12:04Z</time>
					</trkpt>
					<trkpt lat="48.593230" lon="-0.439160">
						<ele>242</ele>
						<time>2026-08-24T10:12:07Z</time>
					</trkpt>
					<trkpt lat="48.593240" lon="-0.439130">
						<ele>242</ele>
						<time>2026-08-24T10:12:08Z</time>
					</trkpt>
					<trkpt lat="48.593230" lon="-0.439160">
						<ele>242</ele>
						<time>2026-08-24T10:12:09Z</time>
					</trkpt>
					<trkpt lat="48.593060" lon="-0.439920">
						<ele>247</ele>
						<time>2026-08-24T10:12:35Z</time>
					</trkpt>
					<trkpt lat="48.592800" lon="-0.441070">
						<ele>250</ele>
						<time>2026-08-24T10:13:16Z</time>
					</trkpt>
					<trkpt lat="48.592710" lon="-0.441440">
						<ele>249</ele>
						<time>2026-08-24T10:13:29Z</time>
					</trkpt>
					<trkpt lat="48.592460" lon="-0.442780">
						<ele>242</ele>
						<time>2026-08-24T10:14:15Z</time>
					</trkpt>
					<trkpt lat="48.592300" lon="-0.443570">
						<ele>239</ele>
						<time>2026-08-24T10:14:42Z</time>
					</trkpt>
					<trkpt lat="48.592150" lon="-0.443630">
						<ele>238</ele>
						<time>2026-08-24T10:14:50Z</time>
					</trkpt>
					<trkpt lat="48.591860" lon="-0.443570">
						<ele>236</ele>
						<time>2026-08-24T10:15:05Z</time>
					</trkpt>
					<trkpt lat="48.591600" lon="-0.443580">
						<ele>235</ele>
						<time>2026-08-24T10:15:18Z</time>
					</trkpt>
					<trkpt lat="48.591230" lon="-0.443640">
						<ele>234</ele>
						<time>2026-08-24T10:15:36Z</time>
					</trkpt>
					<trkpt lat="48.590750" lon="-0.443620">
						<ele>232</ele>
						<time>2026-08-24T10:16:00Z</time>
					</trkpt>
					<trkpt lat="48.590270" lon="-0.443570">
						<ele>231</ele>
						<time>2026-08-24T10:16:24Z</time>
					</trkpt>
					<trkpt lat="48.590040" lon="-0.443530">
						<ele>231</ele>
						<time>2026-08-24T10:16:36Z</time>
					</trkpt>
					<trkpt lat="48.589660" lon="-0.443350">
						<ele>230</ele>
						<time>2026-08-24T10:16:56Z</time>
					</trkpt>
					<trkpt lat="48.589340" lon="-0.443260">
						<ele>229</ele>
						<time>2026-08-24T10:17:12Z</time>
					</trkpt>
					<trkpt lat="48.588910" lon="-0.442860">
						<ele>230</ele>
						<time>2026-08-24T10:17:37Z</time>
					</trkpt>
					<trkpt lat="48.588650" lon="-0.442520">
						<ele>231</ele>
						<time>2026-08-24T10:17:55Z</time>
					</trkpt>
					<trkpt lat="48.588350" lon="-0.442310">
						<ele>233</ele>
						<time>2026-08-24T10:18:11Z</time>
					</trkpt>
					<trkpt lat="48.588270" lon="-0.442310">
						<ele>233</ele>
						<time>2026-08-24T10:18:15Z</time>
					</trkpt>
					<trkpt lat="48.587930" lon="-0.442260">
						<ele>233</ele>
						<time>2026-08-24T10:18:32Z</time>
					</trkpt>
					<trkpt lat="48.587790" lon="-0.442200">
						<ele>233</ele>
						<time>2026-08-24T10:18:39Z</time>
					</trkpt>
					<trkpt lat="48.587470" lon="-0.441920">
						<ele>235</ele>
						<time>2026-08-24T10:18:58Z</time>
					</trkpt>
					<trkpt lat="48.587380" lon="-0.441760">
						<ele>236</ele>
						<time>2026-08-24T10:19:05Z</time>
					</trkpt>
					<trkpt lat="48.587000" lon="-0.440740">
						<ele>240</ele>
						<time>2026-08-24T10:19:44Z</time>
					</trkpt>
					<trkpt lat="48.587000" lon="-0.440180">
						<ele>241</ele>
						<time>2026-08-24T10:20:02Z</time>
					</trkpt>
					<trkpt lat="48.586960" lon="-0.439850">
						<ele>240</ele>
						<time>2026-08-24T10:20:13Z</time>
					</trkpt>
					<trkpt lat="48.586850" lon="-0.439650">
						<ele>239</ele>
						<time>2026-08-24T10:20:22Z</time>
					</trkpt>
					<trkpt lat="48.586540" lon="-0.439410">
						<ele>236</ele>
						<time>2026-08-24T10:20:39Z</time>
					</trkpt>
					<trkpt lat="48.586330" lon="-0.439270">
						<ele>233</ele>
						<time>2026-08-24T10:20:51Z</time>
					</trkpt>
					<trkpt lat="48.586010" lon="-0.439180">
						<ele>229</ele>
						<time>2026-08-24T10:21:07Z</time>
					</trkpt>
					<trkpt lat="48.585710" lon="-0.438880">
						<ele>226</ele>
						<time>2026-08-24T10:21:25Z</time>
					</trkpt>
					<trkpt lat="48.585660" lon="-0.438360">
						<ele>226</ele>
						<time>2026-08-24T10:21:43Z</time>
					</trkpt>
					<trkpt lat="48.585680" lon="-0.437920">
						<ele>226</ele>
						<time>2026-08-24T10:21:57Z</time>
					</trkpt>
					<trkpt lat="48.585880" lon="-0.437200">
						<ele>227</ele>
						<time>2026-08-24T10:22:23Z</time>
					</trkpt>
					<trkpt lat="48.585930" lon="-0.436820">
						<ele>226</ele>
						<time>2026-08-24T10:22:36Z</time>
					</trkpt>
					<trkpt lat="48.585900" lon="-0.436580">
						<ele>225</ele>
						<time>2026-08-24T10:22:44Z</time>
					</trkpt>
					<trkpt lat="48.585980" lon="-0.436270">
						<ele>225</ele>
						<time>2026-08-24T10:22:55Z</time>
					</trkpt>
					<trkpt lat="48.585980" lon="-0.436110">
						<ele>225</ele>
						<time>2026-08-24T10:23:00Z</time>
					</trkpt>
					<trkpt lat="48.585910" lon="-0.435900">
						<ele>225</ele>
						<time>2026-08-24T10:23:08Z</time>
					</trkpt>
					<trkpt lat="48.585810" lon="-0.435830">
						<ele>225</ele>
						<time>2026-08-24T10:23:13Z</time>
					</trkpt>
					<trkpt lat="48.585720" lon="-0.435840">
						<ele>224</ele>
						<time>2026-08-24T10:23:18Z</time>
					</trkpt>
					<trkpt lat="48.585610" lon="-0.435770">
						<ele>224</ele>
						<time>2026-08-24T10:23:24Z</time>
					</trkpt>
					<trkpt lat="48.585410" lon="-0.435590">
						<ele>223</ele>
						<time>2026-08-24T10:23:36Z</time>
					</trkpt>
					<trkpt lat="48.585170" lon="-0.435540">
						<ele>222</ele>
						<time>2026-08-24T10:23:48Z</time>
					</trkpt>
					<trkpt lat="48.584980" lon="-0.435490">
						<ele>221</ele>
						<time>2026-08-24T10:23:57Z</time>
					</trkpt>
					<trkpt lat="48.585010" lon="-0.436050">
						<ele>220</ele>
						<time>2026-08-24T10:24:16Z</time>
					</trkpt>
					<trkpt lat="48.585330" lon="-0.440920">
						<ele>225</ele>
						<time>2026-08-24T10:26:58Z</time>
					</trkpt>
					<trkpt lat="48.583250" lon="-0.441080">
						<ele>229</ele>
						<time>2026-08-24T10:28:42Z</time>
					</trkpt>
					<trkpt lat="48.583210" lon="-0.440790">
						<ele>227</ele>
						<time>2026-08-24T10:28:52Z</time>
					</trkpt>
					<trkpt lat="48.582270" lon="-0.441650">
						<ele>237</ele>
						<time>2026-08-24T10:29:47Z</time>
					</trkpt>
					<trkpt lat="48.581620" lon="-0.442240">
						<ele>240</ele>
						<time>2026-08-24T10:30:25Z</time>
					</trkpt>
					<trkpt lat="48.580620" lon="-0.440700">
						<ele>237</ele>
						<time>2026-08-24T10:31:36Z</time>
					</trkpt>
					<trkpt lat="48.580370" lon="-0.440320">
						<ele>235</ele>
						<time>2026-08-24T10:31:54Z</time>
					</trkpt>
					<trkpt lat="48.579260" lon="-0.438600">
						<ele>229</ele>
						<time>2026-08-24T10:33:14Z</time>
					</trkpt>
					<trkpt lat="48.578770" lon="-0.437840">
						<ele>226</ele>
						<time>2026-08-24T10:33:49Z</time>
					</trkpt>
					<trkpt lat="48.578580" lon="-0.437540">
						<ele>226</ele>
						<time>2026-08-24T10:34:03Z</time>
					</trkpt>
					<trkpt lat="48.577190" lon="-0.435310">
						<ele>221</ele>
						<time>2026-08-24T10:35:44Z</time>
					</trkpt>
					<trkpt lat="48.576620" lon="-0.434460">
						<ele>224</ele>
						<time>2026-08-24T10:36:24Z</time>
					</trkpt>
					<trkpt lat="48.574620" lon="-0.431380">
						<ele>221</ele>
						<time>2026-08-24T10:38:47Z</time>
					</trkpt>
					<trkpt lat="48.574130" lon="-0.430710">
						<ele>218</ele>
						<time>2026-08-24T10:39:20Z</time>
					</trkpt>
					<trkpt lat="48.573430" lon="-0.429650">
						<ele>216</ele>
						<time>2026-08-24T10:40:10Z</time>
					</trkpt>
					<trkpt lat="48.573000" lon="-0.429000">
						<ele>216</ele>
						<time>2026-08-24T10:40:40Z</time>
					</trkpt>
					<trkpt lat="48.572920" lon="-0.428910">
						<ele>216</ele>
						<time>2026-08-24T10:40:45Z</time>
					</trkpt>
					<trkpt lat="48.572900" lon="-0.428870">
						<ele>216</ele>
						<time>2026-08-24T10:40:47Z</time>
					</trkpt>
					<trkpt lat="48.572890" lon="-0.428840">
						<ele>216</ele>
						<time>2026-08-24T10:40:48Z</time>
					</trkpt>
					<trkpt lat="48.572600" lon="-0.428440">
						<ele>216</ele>
						<time>2026-08-24T10:41:07Z</time>
					</trkpt>
					<trkpt lat="48.572250" lon="-0.428050">
						<ele>216</ele>
						<time>2026-08-24T10:41:29Z</time>
					</trkpt>
					<trkpt lat="48.571530" lon="-0.427930">
						<ele>216</ele>
						<time>2026-08-24T10:42:05Z</time>
					</trkpt>
					<trkpt lat="48.571163" lon="-0.427842">
						<ele>216</ele>
						<time>2026-08-24T10:42:24Z</time>
					</trkpt>
					<trkpt lat="48.571030" lon="-0.427810">
						<ele>216</ele>
						<time>2026-08-24T10:42:31Z</time>
					</trkpt>
					<trkpt lat="48.570690" lon="-0.427730">
						<ele>217</ele>
						<time>2026-08-24T10:42:48Z</time>
					</trkpt>
					<trkpt lat="48.569520" lon="-0.427060">
						<ele>220</ele>
						<time>2026-08-24T10:43:51Z</time>
					</trkpt>
					<trkpt lat="48.566710" lon="-0.425170">
						<ele>227</ele>
						<time>2026-08-24T10:46:25Z</time>
					</trkpt>
					<trkpt lat="48.566400" lon="-0.424960">
						<ele>226</ele>
						<time>2026-08-24T10:46:42Z</time>
					</trkpt>
					<trkpt lat="48.559950" lon="-0.420590">
						<ele>188</ele>
						<time>2026-08-24T10:52:35Z</time>
					</trkpt>
					<trkpt lat="48.559680" lon="-0.420390">
						<ele>189</ele>
						<time>2026-08-24T10:52:50Z</time>
					</trkpt>
					<trkpt lat="48.558630" lon="-0.419670">
						<ele>191</ele>
						<time>2026-08-24T10:53:48Z</time>
					</trkpt>
					<trkpt lat="48.558470" lon="-0.419580">
						<ele>191</ele>
						<time>2026-08-24T10:53:57Z</time>
					</trkpt>
					<trkpt lat="48.558350" lon="-0.419510">
						<ele>190</ele>
						<time>2026-08-24T10:54:03Z</time>
					</trkpt>
					<trkpt lat="48.558300" lon="-0.419510">
						<ele>191</ele>
						<time>2026-08-24T10:54:06Z</time>
					</trkpt>
					<trkpt lat="48.558260" lon="-0.419530">
						<ele>192</ele>
						<time>2026-08-24T10:54:08Z</time>
					</trkpt>
					<trkpt lat="48.558150" lon="-0.419650">
						<ele>194</ele>
						<time>2026-08-24T10:54:14Z</time>
					</trkpt>
					<trkpt lat="48.557870" lon="-0.419020">
						<ele>191</ele>
						<time>2026-08-24T10:54:40Z</time>
					</trkpt>
					<trkpt lat="48.557690" lon="-0.418610">
						<ele>189</ele>
						<time>2026-08-24T10:54:56Z</time>
					</trkpt>
					<trkpt lat="48.557640" lon="-0.418500">
						<ele>188</ele>
						<time>2026-08-24T10:55:00Z</time>
					</trkpt>
					<trkpt lat="48.557590" lon="-0.418380">
						<ele>187</ele>
						<time>2026-08-24T10:55:05Z</time>
					</trkpt>
					<trkpt lat="48.557630" lon="-0.418330">
						<ele>187</ele>
						<time>2026-08-24T10:55:08Z</time>
					</trkpt>
					<trkpt lat="48.557680" lon="-0.418200">
						<ele>186</ele>
						<time>2026-08-24T10:55:13Z</time>
					</trkpt>
					<trkpt lat="48.557840" lon="-0.417850">
						<ele>184</ele>
						<time>2026-08-24T10:55:27Z</time>
					</trkpt>
					<trkpt lat="48.557970" lon="-0.417980">
						<ele>184</ele>
						<time>2026-08-24T10:55:34Z</time>
					</trkpt>
					<trkpt lat="48.558010" lon="-0.417980">
						<ele>184</ele>
						<time>2026-08-24T10:55:36Z</time>
					</trkpt>
					<trkpt lat="48.558060" lon="-0.418020">
						<ele>184</ele>
						<time>2026-08-24T10:55:39Z</time>
					</trkpt>
					<trkpt lat="48.558100" lon="-0.418090">
						<ele>184</ele>
						<time>2026-08-24T10:55:42Z</time>
					</trkpt>
					<trkpt lat="48.558260" lon="-0.418000">
						<ele>183</ele>
						<time>2026-08-24T10:55:51Z</time>
					</trkpt>
					<trkpt lat="48.558290" lon="-0.418100">
						<ele>184</ele>
						<time>2026-08-24T10:55:54Z</time>
					</trkpt>
					<trkpt lat="48.558310" lon="-0.418130">
						<ele>184</ele>
						<time>2026-08-24T10:55:56Z</time>
					</trkpt>
					<trkpt lat="48.558340" lon="-0.418190">
						<ele>184</ele>
						<time>2026-08-24T10:55:58Z</time>
					</trkpt>
					<trkpt lat="48.558620" lon="-0.418040">
						<ele>184</ele>
						<time>2026-08-24T10:56:13Z</time>
					</trkpt>
					<trkpt lat="48.558590" lon="-0.417870">
						<ele>183</ele>
						<time>2026-08-24T10:56:19Z</time>
					</trkpt>
					<trkpt lat="48.558590" lon="-0.417670">
						<ele>183</ele>
						<time>2026-08-24T10:56:26Z</time>
					</trkpt>
					<trkpt lat="48.558600" lon="-0.417600">
						<ele>183</ele>
						<time>2026-08-24T10:56:28Z</time>
					</trkpt>
					<trkpt lat="48.558640" lon="-0.417470">
						<ele>183</ele>
						<time>2026-08-24T10:56:33Z</time>
					</trkpt>
					<trkpt lat="48.558710" lon="-0.417330">
						<ele>183</ele>
						<time>2026-08-24T10:56:39Z</time>
					</trkpt>
					<trkpt lat="48.558730" lon="-0.417260">
						<ele>183</ele>
						<time>2026-08-24T10:56:41Z</time>
					</trkpt>
					<trkpt lat="48.558750" lon="-0.417180">
						<ele>184</ele>
						<time>2026-08-24T10:56:44Z</time>
					</trkpt>
					<trkpt lat="48.558740" lon="-0.417090">
						<ele>184</ele>
						<time>2026-08-24T10:56:47Z</time>
					</trkpt>
					<trkpt lat="48.558690" lon="-0.416870">
						<ele>184</ele>
						<time>2026-08-24T10:56:55Z</time>
					</trkpt>
					<trkpt lat="48.558620" lon="-0.416660">
						<ele>184</ele>
						<time>2026-08-24T10:57:03Z</time>
					</trkpt>
					<trkpt lat="48.558580" lon="-0.416600">
						<ele>184</ele>
						<time>2026-08-24T10:57:05Z</time>
					</trkpt>
					<trkpt lat="48.558540" lon="-0.416540">
						<ele>184</ele>
						<time>2026-08-24T10:57:08Z</time>
					</trkpt>
					<trkpt lat="48.558480" lon="-0.416480">
						<ele>184</ele>
						<time>2026-08-24T10:57:12Z</time>
					</trkpt>
					<trkpt lat="48.558460" lon="-0.416440">
						<ele>185</ele>
						<time>2026-08-24T10:57:13Z</time>
					</trkpt>
					<trkpt lat="48.558450" lon="-0.416330">
						<ele>185</ele>
						<time>2026-08-24T10:57:17Z</time>
					</trkpt>
					<trkpt lat="48.558420" lon="-0.416300">
						<ele>185</ele>
						<time>2026-08-24T10:57:19Z</time>
					</trkpt>
					<trkpt lat="48.558400" lon="-0.416160">
						<ele>186</ele>
						<time>2026-08-24T10:57:24Z</time>
					</trkpt>
					<trkpt lat="48.558380" lon="-0.416120">
						<ele>186</ele>
						<time>2026-08-24T10:57:25Z</time>
					</trkpt>
					<trkpt lat="48.558280" lon="-0.416060">
						<ele>186</ele>
						<time>2026-08-24T10:57:31Z</time>
					</trkpt>
					<trkpt lat="48.558210" lon="-0.415990">
						<ele>186</ele>
						<time>2026-08-24T10:57:35Z</time>
					</trkpt>
					<trkpt lat="48.558170" lon="-0.415970">
						<ele>185</ele>
						<time>2026-08-24T10:57:37Z</time>
					</trkpt>
					<trkpt lat="48.558170" lon="-0.415960">
						<ele>186</ele>
						<time>2026-08-24T10:57:37Z</time>
					</trkpt>
					<trkpt lat="48.558010" lon="-0.415700">
						<ele>186</ele>
						<time>2026-08-24T10:57:49Z</time>
					</trkpt>
					<trkpt lat="48.557940" lon="-0.415610">
						<ele>186</ele>
						<time>2026-08-24T10:57:54Z</time>
					</trkpt>
					<trkpt lat="48.557890" lon="-0.415570">
						<ele>186</ele>
						<time>2026-08-24T10:57:57Z</time>
					</trkpt>
					<trkpt lat="48.557770" lon="-0.415520">
						<ele>185</ele>
						<time>2026-08-24T10:58:03Z</time>
					</trkpt>
					<trkpt lat="48.557710" lon="-0.415510">
						<ele>185</ele>
						<time>2026-08-24T10:58:06Z</time>
					</trkpt>
					<trkpt lat="48.557680" lon="-0.415520">
						<ele>185</ele>
						<time>2026-08-24T10:58:07Z</time>
					</trkpt>
					<trkpt lat="48.557640" lon="-0.415560">
						<ele>184</ele>
						<time>2026-08-24T10:58:10Z</time>
					</trkpt>
					<trkpt lat="48.557540" lon="-0.415590">
						<ele>184</ele>
						<time>2026-08-24T10:58:15Z</time>
					</trkpt>
					<trkpt lat="48.557430" lon="-0.415660">
						<ele>184</ele>
						<time>2026-08-24T10:58:21Z</time>
					</trkpt>
					<trkpt lat="48.557330" lon="-0.415750">
						<ele>185</ele>
						<time>2026-08-24T10:58:27Z</time>
					</trkpt>
					<trkpt lat="48.557220" lon="-0.415880">
						<ele>185</ele>
						<time>2026-08-24T10:58:34Z</time>
					</trkpt>
					<trkpt lat="48.557070" lon="-0.416050">
						<ele>186</ele>
						<time>2026-08-24T10:58:43Z</time>
					</trkpt>
					<trkpt lat="48.557040" lon="-0.416100">
						<ele>187</ele>
						<time>2026-08-24T10:58:45Z</time>
					</trkpt>
					<trkpt lat="48.557000" lon="-0.416210">
						<ele>187</ele>
						<time>2026-08-24T10:58:49Z</time>
					</trkpt>
					<trkpt lat="48.556970" lon="-0.416330">
						<ele>187</ele>
						<time>2026-08-24T10:58:54Z</time>
					</trkpt>
					<trkpt lat="48.556970" lon="-0.416470">
						<ele>186</ele>
						<time>2026-08-24T10:58:58Z</time>
					</trkpt>
					<trkpt lat="48.556970" lon="-0.416650">
						<ele>186</ele>
						<time>2026-08-24T10:59:04Z</time>
					</trkpt>
					<trkpt lat="48.556970" lon="-0.416680">
						<ele>185</ele>
						<time>2026-08-24T10:59:05Z</time>
					</trkpt>
					<trkpt lat="48.556960" lon="-0.416700">
						<ele>185</ele>
						<time>2026-08-24T10:59:06Z</time>
					</trkpt>
					<trkpt lat="48.556910" lon="-0.416720">
						<ele>186</ele>
						<time>2026-08-24T10:59:09Z</time>
					</trkpt>
					<trkpt lat="48.556880" lon="-0.416730">
						<ele>186</ele>
						<time>2026-08-24T10:59:10Z</time>
					</trkpt>
					<trkpt lat="48.556850" lon="-0.416730">
						<ele>186</ele>
						<time>2026-08-24T10:59:12Z</time>
					</trkpt>
					<trkpt lat="48.556840" lon="-0.416730">
						<ele>186</ele>
						<time>2026-08-24T10:59:12Z</time>
					</trkpt>
					<trkpt lat="48.556790" lon="-0.416740">
						<ele>187</ele>
						<time>2026-08-24T10:59:15Z</time>
					</trkpt>
					<trkpt lat="48.556790" lon="-0.416770">
						<ele>187</ele>
						<time>2026-08-24T10:59:16Z</time>
					</trkpt>
					<trkpt lat="48.556780" lon="-0.416780">
						<ele>187</ele>
						<time>2026-08-24T10:59:16Z</time>
					</trkpt>
					<trkpt lat="48.556780" lon="-0.416780">
						<ele>187</ele>
						<time>2026-08-24T10:59:16Z</time>
					</trkpt>
					<trkpt lat="48.556760" lon="-0.416790">
						<ele>187</ele>
						<time>2026-08-24T10:59:17Z</time>
					</trkpt>
					<trkpt lat="48.556730" lon="-0.416740">
						<ele>187</ele>
						<time>2026-08-24T10:59:20Z</time>
					</trkpt>
					<trkpt lat="48.556720" lon="-0.416740">
						<ele>187</ele>
						<time>2026-08-24T10:59:20Z</time>
					</trkpt>
					<trkpt lat="48.556500" lon="-0.416740">
						<ele>190</ele>
						<time>2026-08-24T10:59:31Z</time>
					</trkpt>
					<trkpt lat="48.556440" lon="-0.416720">
						<ele>191</ele>
						<time>2026-08-24T10:59:34Z</time>
					</trkpt>
					<trkpt lat="48.556320" lon="-0.416640">
						<ele>194</ele>
						<time>2026-08-24T10:59:41Z</time>
					</trkpt>
					<trkpt lat="48.556190" lon="-0.416650">
						<ele>196</ele>
						<time>2026-08-24T10:59:47Z</time>
					</trkpt>
					<trkpt lat="48.556100" lon="-0.416500">
						<ele>198</ele>
						<time>2026-08-24T10:59:54Z</time>
					</trkpt>
					<trkpt lat="48.555880" lon="-0.416210">
						<ele>203</ele>
						<time>2026-08-24T11:00:09Z</time>
					</trkpt>
					<trkpt lat="48.555480" lon="-0.415580">
						<ele>205</ele>
						<time>2026-08-24T11:00:37Z</time>
					</trkpt>
					<trkpt lat="48.555440" lon="-0.415550">
						<ele>205</ele>
						<time>2026-08-24T11:00:40Z</time>
					</trkpt>
					<trkpt lat="48.555350" lon="-0.415650">
						<ele>204</ele>
						<time>2026-08-24T11:00:45Z</time>
					</trkpt>
					<trkpt lat="48.555270" lon="-0.415670">
						<ele>204</ele>
						<time>2026-08-24T11:00:49Z</time>
					</trkpt>
					<trkpt lat="48.555120" lon="-0.415640">
						<ele>204</ele>
						<time>2026-08-24T11:00:57Z</time>
					</trkpt>
					<trkpt lat="48.555030" lon="-0.415600">
						<ele>204</ele>
						<time>2026-08-24T11:01:02Z</time>
					</trkpt>
					<trkpt lat="48.554980" lon="-0.415590">
						<ele>203</ele>
						<time>2026-08-24T11:01:04Z</time>
					</trkpt>
					<trkpt lat="48.555060" lon="-0.415940">
						<ele>200</ele>
						<time>2026-08-24T11:01:16Z</time>
					</trkpt>
					<trkpt lat="48.555060" lon="-0.416000">
						<ele>199</ele>
						<time>2026-08-24T11:01:18Z</time>
					</trkpt>
					<trkpt lat="48.555040" lon="-0.416070">
						<ele>198</ele>
						<time>2026-08-24T11:01:21Z</time>
					</trkpt>
					<trkpt lat="48.554990" lon="-0.415900">
						<ele>200</ele>
						<time>2026-08-24T11:01:27Z</time>
					</trkpt>
					<trkpt lat="48.554900" lon="-0.415750">
						<ele>200</ele>
						<time>2026-08-24T11:01:34Z</time>
					</trkpt>
					<trkpt lat="48.554770" lon="-0.415560">
						<ele>199</ele>
						<time>2026-08-24T11:01:43Z</time>
					</trkpt>
					<trkpt lat="48.554660" lon="-0.415360">
						<ele>199</ele>
						<time>2026-08-24T11:01:51Z</time>
					</trkpt>
					<trkpt lat="48.554630" lon="-0.415400">
						<ele>198</ele>
						<time>2026-08-24T11:01:53Z</time>
					</trkpt>
					<trkpt lat="48.554580" lon="-0.415310">
						<ele>199</ele>
						<time>2026-08-24T11:01:57Z</time>
					</trkpt>
					<trkpt lat="48.554540" lon="-0.415190">
						<ele>199</ele>
						<time>2026-08-24T11:02:02Z</time>
					</trkpt>
					<trkpt lat="48.554480" lon="-0.415100">
						<ele>199</ele>
						<time>2026-08-24T11:02:06Z</time>
					</trkpt>
					<trkpt lat="48.554440" lon="-0.415060">
						<ele>199</ele>
						<time>2026-08-24T11:02:08Z</time>
					</trkpt>
					<trkpt lat="48.554280" lon="-0.414990">
						<ele>197</ele>
						<time>2026-08-24T11:02:17Z</time>
					</trkpt>
					<trkpt lat="48.554130" lon="-0.414650">
						<ele>202</ele>
						<time>2026-08-24T11:02:30Z</time>
					</trkpt>
					<trkpt lat="48.554000" lon="-0.414590">
						<ele>202</ele>
						<time>2026-08-24T11:02:37Z</time>
					</trkpt>
					<trkpt lat="48.553960" lon="-0.414600">
						<ele>202</ele>
						<time>2026-08-24T11:02:39Z</time>
					</trkpt>
					<trkpt lat="48.553930" lon="-0.414600">
						<ele>201</ele>
						<time>2026-08-24T11:02:41Z</time>
					</trkpt>
					<trkpt lat="48.553870" lon="-0.414570">
						<ele>201</ele>
						<time>2026-08-24T11:02:44Z</time>
					</trkpt>
					<trkpt lat="48.553730" lon="-0.414480">
						<ele>202</ele>
						<time>2026-08-24T11:02:51Z</time>
					</trkpt>
					<trkpt lat="48.553690" lon="-0.414450">
						<ele>202</ele>
						<time>2026-08-24T11:02:54Z</time>
					</trkpt>
					<trkpt lat="48.553670" lon="-0.414420">
						<ele>203</ele>
						<time>2026-08-24T11:02:55Z</time>
					</trkpt>
					<trkpt lat="48.553570" lon="-0.414170">
						<ele>208</ele>
						<time>2026-08-24T11:03:05Z</time>
					</trkpt>
					<trkpt lat="48.553530" lon="-0.414110">
						<ele>208</ele>
						<time>2026-08-24T11:03:08Z</time>
					</trkpt>
					<trkpt lat="48.553460" lon="-0.414040">
						<ele>209</ele>
						<time>2026-08-24T11:03:12Z</time>
					</trkpt>
					<trkpt lat="48.553360" lon="-0.414010">
						<ele>209</ele>
						<time>2026-08-24T11:03:17Z</time>
					</trkpt>
					<trkpt lat="48.553110" lon="-0.413870">
						<ele>211</ele>
						<time>2026-08-24T11:03:30Z</time>
					</trkpt>
					<trkpt lat="48.553020" lon="-0.413960">
						<ele>210</ele>
						<time>2026-08-24T11:03:36Z</time>
					</trkpt>
					<trkpt lat="48.553010" lon="-0.414050">
						<ele>208</ele>
						<time>2026-08-24T11:03:39Z</time>
					</trkpt>
					<trkpt lat="48.553050" lon="-0.414200">
						<ele>206</ele>
						<time>2026-08-24T11:03:44Z</time>
					</trkpt>
					<trkpt lat="48.553070" lon="-0.414290">
						<ele>204</ele>
						<time>2026-08-24T11:03:47Z</time>
					</trkpt>
					<trkpt lat="48.553000" lon="-0.414530">
						<ele>198</ele>
						<time>2026-08-24T11:03:56Z</time>
					</trkpt>
					<trkpt lat="48.553000" lon="-0.414580">
						<ele>197</ele>
						<time>2026-08-24T11:03:57Z</time>
					</trkpt>
					<trkpt lat="48.553070" lon="-0.414670">
						<ele>194</ele>
						<time>2026-08-24T11:04:02Z</time>
					</trkpt>
					<trkpt lat="48.553060" lon="-0.414720">
						<ele>193</ele>
						<time>2026-08-24T11:04:04Z</time>
					</trkpt>
					<trkpt lat="48.552890" lon="-0.414890">
						<ele>190</ele>
						<time>2026-08-24T11:04:14Z</time>
					</trkpt>
					<trkpt lat="48.552920" lon="-0.414950">
						<ele>188</ele>
						<time>2026-08-24T11:04:16Z</time>
					</trkpt>
					<trkpt lat="48.552880" lon="-0.414980">
						<ele>188</ele>
						<time>2026-08-24T11:04:19Z</time>
					</trkpt>
					<trkpt lat="48.552900" lon="-0.415070">
						<ele>186</ele>
						<time>2026-08-24T11:04:22Z</time>
					</trkpt>
					<trkpt lat="48.553160" lon="-0.415110">
						<ele>185</ele>
						<time>2026-08-24T11:04:35Z</time>
					</trkpt>
					<trkpt lat="48.553280" lon="-0.415200">
						<ele>184</ele>
						<time>2026-08-24T11:04:42Z</time>
					</trkpt>
					<trkpt lat="48.553220" lon="-0.415320">
						<ele>184</ele>
						<time>2026-08-24T11:04:47Z</time>
					</trkpt>
					<trkpt lat="48.553120" lon="-0.415610">
						<ele>182</ele>
						<time>2026-08-24T11:04:57Z</time>
					</trkpt>
					<trkpt lat="48.553050" lon="-0.415890">
						<ele>180</ele>
						<time>2026-08-24T11:05:07Z</time>
					</trkpt>
					<trkpt lat="48.553100" lon="-0.416040">
						<ele>182</ele>
						<time>2026-08-24T11:05:13Z</time>
					</trkpt>
					<trkpt lat="48.553190" lon="-0.416260">
						<ele>186</ele>
						<time>2026-08-24T11:05:22Z</time>
					</trkpt>
					<trkpt lat="48.553140" lon="-0.416240">
						<ele>185</ele>
						<time>2026-08-24T11:05:24Z</time>
					</trkpt>
					<trkpt lat="48.552940" lon="-0.416230">
						<ele>182</ele>
						<time>2026-08-24T11:05:34Z</time>
					</trkpt>
					<trkpt lat="48.552900" lon="-0.416240">
						<ele>181</ele>
						<time>2026-08-24T11:05:36Z</time>
					</trkpt>
					<trkpt lat="48.552870" lon="-0.416280">
						<ele>181</ele>
						<time>2026-08-24T11:05:38Z</time>
					</trkpt>
					<trkpt lat="48.552890" lon="-0.416310">
						<ele>182</ele>
						<time>2026-08-24T11:05:40Z</time>
					</trkpt>
					<trkpt lat="48.552910" lon="-0.416320">
						<ele>182</ele>
						<time>2026-08-24T11:05:41Z</time>
					</trkpt>
					<trkpt lat="48.553000" lon="-0.416320">
						<ele>183</ele>
						<time>2026-08-24T11:05:45Z</time>
					</trkpt>
					<trkpt lat="48.553020" lon="-0.416350">
						<ele>184</ele>
						<time>2026-08-24T11:05:47Z</time>
					</trkpt>
					<trkpt lat="48.553030" lon="-0.416390">
						<ele>184</ele>
						<time>2026-08-24T11:05:48Z</time>
					</trkpt>
					<trkpt lat="48.553010" lon="-0.416450">
						<ele>185</ele>
						<time>2026-08-24T11:05:50Z</time>
					</trkpt>
					<trkpt lat="48.552970" lon="-0.416550">
						<ele>185</ele>
						<time>2026-08-24T11:05:54Z</time>
					</trkpt>
					<trkpt lat="48.552960" lon="-0.416640">
						<ele>185</ele>
						<time>2026-08-24T11:05:57Z</time>
					</trkpt>
					<trkpt lat="48.552850" lon="-0.417050">
						<ele>190</ele>
						<time>2026-08-24T11:06:12Z</time>
					</trkpt>
					<trkpt lat="48.552780" lon="-0.417250">
						<ele>192</ele>
						<time>2026-08-24T11:06:19Z</time>
					</trkpt>
					<trkpt lat="48.552700" lon="-0.417390">
						<ele>192</ele>
						<time>2026-08-24T11:06:25Z</time>
					</trkpt>
					<trkpt lat="48.552630" lon="-0.417490">
						<ele>192</ele>
						<time>2026-08-24T11:06:30Z</time>
					</trkpt>
					<trkpt lat="48.552620" lon="-0.417650">
						<ele>194</ele>
						<time>2026-08-24T11:06:35Z</time>
					</trkpt>
					<trkpt lat="48.552580" lon="-0.417830">
						<ele>195</ele>
						<time>2026-08-24T11:06:42Z</time>
					</trkpt>
					<trkpt lat="48.552510" lon="-0.418100">
						<ele>196</ele>
						<time>2026-08-24T11:06:51Z</time>
					</trkpt>
					<trkpt lat="48.552520" lon="-0.418330">
						<ele>199</ele>
						<time>2026-08-24T11:06:59Z</time>
					</trkpt>
					<trkpt lat="48.552530" lon="-0.418370">
						<ele>200</ele>
						<time>2026-08-24T11:07:00Z</time>
					</trkpt>
					<trkpt lat="48.552630" lon="-0.418660">
						<ele>203</ele>
						<time>2026-08-24T11:07:11Z</time>
					</trkpt>
					<trkpt lat="48.552320" lon="-0.419330">
						<ele>199</ele>
						<time>2026-08-24T11:07:38Z</time>
					</trkpt>
					<trkpt lat="48.551970" lon="-0.419730">
						<ele>189</ele>
						<time>2026-08-24T11:08:00Z</time>
					</trkpt>
					<trkpt lat="48.551570" lon="-0.420500">
						<ele>185</ele>
						<time>2026-08-24T11:08:33Z</time>
					</trkpt>
					<trkpt lat="48.551670" lon="-0.420890">
						<ele>189</ele>
						<time>2026-08-24T11:08:47Z</time>
					</trkpt>
					<trkpt lat="48.551800" lon="-0.421040">
						<ele>193</ele>
						<time>2026-08-24T11:08:55Z</time>
					</trkpt>
					<trkpt lat="48.552020" lon="-0.421100">
						<ele>197</ele>
						<time>2026-08-24T11:09:06Z</time>
					</trkpt>
					<trkpt lat="48.552070" lon="-0.420920">
						<ele>197</ele>
						<time>2026-08-24T11:09:12Z</time>
					</trkpt>
					<trkpt lat="48.552230" lon="-0.420730">
						<ele>200</ele>
						<time>2026-08-24T11:09:23Z</time>
					</trkpt>
					<trkpt lat="48.552560" lon="-0.420420">
						<ele>206</ele>
						<time>2026-08-24T11:09:42Z</time>
					</trkpt>
					<trkpt lat="48.552840" lon="-0.420350">
						<ele>211</ele>
						<time>2026-08-24T11:09:56Z</time>
					</trkpt>
					<trkpt lat="48.552840" lon="-0.420500">
						<ele>210</ele>
						<time>2026-08-24T11:10:01Z</time>
					</trkpt>
					<trkpt lat="48.552930" lon="-0.421320">
						<ele>211</ele>
						<time>2026-08-24T11:10:29Z</time>
					</trkpt>
					</trkseg>
				</trk>
			</gpx>